sensor_id;sensor_type;location;lat;lon;timestamp;P1;durP1;ratioP1;P2;durP2;ratioP2
75772;SDS011;64381;0.000;0.000;2023-04-06T00:00:34;4.30;;;2.80;;
75772;SDS011;64381;0.000;0.000;2023-04-06T00:02:59;4.03;;;2.40;;
75772;SDS011;64381;0.000;0.000;2023-04-06T00:05:24;4.10;;;2.10;;
75772;SDS011;64381;0.000;0.000;2023-04-06T00:07:49;4.47;;;2.57;;
75772;SDS011;64381;0.000;0.000;2023-04-06T00:10:15;4.03;;;2.67;;
75772;SDS011;64381;0.000;0.000;2023-04-06T00:12:41;3.90;;;2.28;;
75772;SDS011;64381;0.000;0.000;2023-04-06T00:15:06;3.90;;;2.30;;
75772;SDS011;64381;0.000;0.000;2023-04-06T00:17:32;4.23;;;2.40;;
75772;SDS011;64381;0.000;0.000;2023-04-06T00:19:57;3.93;;;2.40;;
75772;SDS011;64381;0.000;0.000;2023-04-06T00:22:22;4.17;;;2.53;;
75772;SDS011;64381;0.000;0.000;2023-04-06T00:24:47;4.77;;;2.53;;
75772;SDS011;64381;0.000;0.000;2023-04-06T00:27:12;4.07;;;2.40;;
75772;SDS011;64381;0.000;0.000;2023-04-06T00:29:39;5.23;;;2.60;;
75772;SDS011;64381;0.000;0.000;2023-04-06T00:32:04;4.18;;;2.40;;
75772;SDS011;64381;0.000;0.000;2023-04-06T00:34:30;4.20;;;2.40;;
75772;SDS011;64381;0.000;0.000;2023-04-06T00:36:55;4.17;;;2.33;;
75772;SDS011;64381;0.000;0.000;2023-04-06T00:39:20;4.27;;;2.47;;
75772;SDS011;64381;0.000;0.000;2023-04-06T00:41:46;4.30;;;2.57;;
75772;SDS011;64381;0.000;0.000;2023-04-06T00:44:15;4.15;;;2.30;;
75772;SDS011;64381;0.000;0.000;2023-04-06T00:46:40;4.03;;;2.23;;
75772;SDS011;64381;0.000;0.000;2023-04-06T00:49:06;4.47;;;2.40;;
75772;SDS011;64381;0.000;0.000;2023-04-06T00:51:31;4.07;;;2.40;;
75772;SDS011;64381;0.000;0.000;2023-04-06T00:53:56;4.47;;;2.40;;
75772;SDS011;64381;0.000;0.000;2023-04-06T00:56:21;3.93;;;2.20;;
75772;SDS011;64381;0.000;0.000;2023-04-06T00:58:47;3.97;;;2.30;;
75772;SDS011;64381;0.000;0.000;2023-04-06T01:01:12;4.33;;;2.43;;
75772;SDS011;64381;0.000;0.000;2023-04-06T01:03:37;4.77;;;2.60;;
75772;SDS011;64381;0.000;0.000;2023-04-06T01:06:02;4.30;;;2.20;;
75772;SDS011;64381;0.000;0.000;2023-04-06T01:08:28;3.90;;;2.30;;
75772;SDS011;64381;0.000;0.000;2023-04-06T01:10:53;4.70;;;2.40;;
75772;SDS011;64381;0.000;0.000;2023-04-06T01:13:18;4.13;;;2.30;;
75772;SDS011;64381;0.000;0.000;2023-04-06T01:15:43;4.13;;;2.30;;
75772;SDS011;64381;0.000;0.000;2023-04-06T01:18:09;3.90;;;2.43;;
75772;SDS011;64381;0.000;0.000;2023-04-06T01:20:34;4.03;;;2.40;;
75772;SDS011;64381;0.000;0.000;2023-04-06T01:22:59;4.07;;;2.27;;
75772;SDS011;64381;0.000;0.000;2023-04-06T01:25:24;3.90;;;2.30;;
75772;SDS011;64381;0.000;0.000;2023-04-06T01:27:49;4.53;;;2.30;;
75772;SDS011;64381;0.000;0.000;2023-04-06T01:30:15;3.93;;;2.43;;
75772;SDS011;64381;0.000;0.000;2023-04-06T01:32:40;4.87;;;2.70;;
75772;SDS011;64381;0.000;0.000;2023-04-06T01:35:05;3.90;;;2.40;;
75772;SDS011;64381;0.000;0.000;2023-04-06T01:37:31;3.57;;;2.27;;
75772;SDS011;64381;0.000;0.000;2023-04-06T01:39:56;3.87;;;2.30;;
75772;SDS011;64381;0.000;0.000;2023-04-06T01:42:21;4.53;;;2.40;;
75772;SDS011;64381;0.000;0.000;2023-04-06T01:44:46;4.40;;;2.67;;
75772;SDS011;64381;0.000;0.000;2023-04-06T01:47:12;3.83;;;2.23;;
75772;SDS011;64381;0.000;0.000;2023-04-06T01:49:37;4.70;;;2.47;;
75772;SDS011;64381;0.000;0.000;2023-04-06T01:52:02;4.17;;;2.20;;
75772;SDS011;64381;0.000;0.000;2023-04-06T01:54:27;3.80;;;2.30;;
75772;SDS011;64381;0.000;0.000;2023-04-06T01:56:52;3.93;;;2.20;;
75772;SDS011;64381;0.000;0.000;2023-04-06T01:59:18;5.00;;;2.27;;
75772;SDS011;64381;0.000;0.000;2023-04-06T02:01:43;4.07;;;2.40;;
75772;SDS011;64381;0.000;0.000;2023-04-06T02:04:08;3.80;;;2.30;;
75772;SDS011;64381;0.000;0.000;2023-04-06T02:06:33;4.00;;;2.73;;
75772;SDS011;64381;0.000;0.000;2023-04-06T02:08:59;4.43;;;2.33;;
75772;SDS011;64381;0.000;0.000;2023-04-06T02:11:24;3.83;;;2.40;;
75772;SDS011;64381;0.000;0.000;2023-04-06T02:13:49;3.77;;;2.10;;
75772;SDS011;64381;0.000;0.000;2023-04-06T02:16:14;4.17;;;2.40;;
75772;SDS011;64381;0.000;0.000;2023-04-06T02:18:39;3.57;;;2.10;;
75772;SDS011;64381;0.000;0.000;2023-04-06T02:21:05;4.23;;;2.33;;
75772;SDS011;64381;0.000;0.000;2023-04-06T02:23:30;3.63;;;2.13;;
75772;SDS011;64381;0.000;0.000;2023-04-06T02:25:55;3.70;;;2.43;;
75772;SDS011;64381;0.000;0.000;2023-04-06T02:28:20;3.50;;;2.10;;
75772;SDS011;64381;0.000;0.000;2023-04-06T02:30:45;3.70;;;2.00;;
75772;SDS011;64381;0.000;0.000;2023-04-06T02:33:11;3.70;;;2.10;;
75772;SDS011;64381;0.000;0.000;2023-04-06T02:35:36;3.83;;;2.40;;
75772;SDS011;64381;0.000;0.000;2023-04-06T02:38:01;3.80;;;2.13;;
75772;SDS011;64381;0.000;0.000;2023-04-06T02:40:26;3.90;;;2.30;;
75772;SDS011;64381;0.000;0.000;2023-04-06T02:42:52;4.33;;;2.30;;
75772;SDS011;64381;0.000;0.000;2023-04-06T02:45:17;3.73;;;2.20;;
75772;SDS011;64381;0.000;0.000;2023-04-06T02:47:42;4.00;;;2.10;;
75772;SDS011;64381;0.000;0.000;2023-04-06T02:50:07;4.53;;;2.40;;
75772;SDS011;64381;0.000;0.000;2023-04-06T02:52:33;3.63;;;2.03;;
75772;SDS011;64381;0.000;0.000;2023-04-06T02:54:58;3.90;;;2.43;;
75772;SDS011;64381;0.000;0.000;2023-04-06T02:57:23;3.60;;;2.23;;
75772;SDS011;64381;0.000;0.000;2023-04-06T02:59:49;3.83;;;2.23;;
75772;SDS011;64381;0.000;0.000;2023-04-06T03:02:14;3.80;;;2.30;;
75772;SDS011;64381;0.000;0.000;2023-04-06T03:04:39;3.70;;;2.30;;
75772;SDS011;64381;0.000;0.000;2023-04-06T03:07:04;4.50;;;2.20;;
75772;SDS011;64381;0.000;0.000;2023-04-06T03:09:29;4.13;;;2.57;;
75772;SDS011;64381;0.000;0.000;2023-04-06T03:11:55;4.30;;;2.23;;
75772;SDS011;64381;0.000;0.000;2023-04-06T03:14:20;4.30;;;2.43;;
75772;SDS011;64381;0.000;0.000;2023-04-06T03:16:45;4.27;;;2.17;;
75772;SDS011;64381;0.000;0.000;2023-04-06T03:19:10;3.57;;;2.30;;
75772;SDS011;64381;0.000;0.000;2023-04-06T03:21:36;3.93;;;2.17;;
75772;SDS011;64381;0.000;0.000;2023-04-06T03:24:01;4.70;;;2.60;;
75772;SDS011;64381;0.000;0.000;2023-04-06T03:26:26;3.67;;;2.30;;
75772;SDS011;64381;0.000;0.000;2023-04-06T03:28:51;4.20;;;2.43;;
75772;SDS011;64381;0.000;0.000;2023-04-06T03:31:16;3.63;;;2.27;;
75772;SDS011;64381;0.000;0.000;2023-04-06T03:33:42;4.07;;;2.33;;
75772;SDS011;64381;0.000;0.000;2023-04-06T03:36:07;3.70;;;2.30;;
75772;SDS011;64381;0.000;0.000;2023-04-06T03:38:32;3.80;;;2.30;;
75772;SDS011;64381;0.000;0.000;2023-04-06T03:40:57;4.07;;;2.40;;
75772;SDS011;64381;0.000;0.000;2023-04-06T03:43:23;3.77;;;2.30;;
75772;SDS011;64381;0.000;0.000;2023-04-06T03:45:48;4.30;;;2.40;;
75772;SDS011;64381;0.000;0.000;2023-04-06T03:48:13;3.67;;;2.27;;
75772;SDS011;64381;0.000;0.000;2023-04-06T03:50:38;3.60;;;1.90;;
75772;SDS011;64381;0.000;0.000;2023-04-06T03:53:03;3.67;;;2.20;;
75772;SDS011;64381;0.000;0.000;2023-04-06T03:55:29;4.10;;;2.40;;
75772;SDS011;64381;0.000;0.000;2023-04-06T03:57:54;4.80;;;2.47;;
75772;SDS011;64381;0.000;0.000;2023-04-06T04:00:19;3.57;;;2.13;;
75772;SDS011;64381;0.000;0.000;2023-04-06T04:02:45;3.90;;;2.22;;
75772;SDS011;64381;0.000;0.000;2023-04-06T04:05:10;4.13;;;2.40;;
75772;SDS011;64381;0.000;0.000;2023-04-06T04:07:35;3.70;;;2.00;;
75772;SDS011;64381;0.000;0.000;2023-04-06T04:10:00;4.20;;;2.20;;
75772;SDS011;64381;0.000;0.000;2023-04-06T04:12:25;3.63;;;2.20;;
75772;SDS011;64381;0.000;0.000;2023-04-06T04:14:51;3.90;;;2.30;;
75772;SDS011;64381;0.000;0.000;2023-04-06T04:17:16;4.50;;;2.30;;
75772;SDS011;64381;0.000;0.000;2023-04-06T04:19:41;3.87;;;2.30;;
75772;SDS011;64381;0.000;0.000;2023-04-06T04:22:06;4.90;;;2.63;;
75772;SDS011;64381;0.000;0.000;2023-04-06T04:24:31;4.40;;;2.60;;
75772;SDS011;64381;0.000;0.000;2023-04-06T04:26:57;4.10;;;2.20;;
75772;SDS011;64381;0.000;0.000;2023-04-06T04:29:22;4.10;;;2.30;;
75772;SDS011;64381;0.000;0.000;2023-04-06T04:31:48;4.00;;;2.40;;
75772;SDS011;64381;0.000;0.000;2023-04-06T04:34:14;3.70;;;2.25;;
75772;SDS011;64381;0.000;0.000;2023-04-06T04:36:39;4.43;;;2.37;;
75772;SDS011;64381;0.000;0.000;2023-04-06T04:39:04;4.07;;;2.43;;
75772;SDS011;64381;0.000;0.000;2023-04-06T04:41:29;4.03;;;2.27;;
75772;SDS011;64381;0.000;0.000;2023-04-06T04:43:55;4.17;;;2.30;;
75772;SDS011;64381;0.000;0.000;2023-04-06T04:46:20;3.70;;;2.23;;
75772;SDS011;64381;0.000;0.000;2023-04-06T04:48:45;4.40;;;2.50;;
75772;SDS011;64381;0.000;0.000;2023-04-06T04:51:10;3.30;;;2.10;;
75772;SDS011;64381;0.000;0.000;2023-04-06T04:53:35;3.70;;;2.20;;
75772;SDS011;64381;0.000;0.000;2023-04-06T04:56:01;3.60;;;2.23;;
75772;SDS011;64381;0.000;0.000;2023-04-06T04:58:26;4.13;;;2.67;;
75772;SDS011;64381;0.000;0.000;2023-04-06T05:00:51;4.30;;;2.33;;
75772;SDS011;64381;0.000;0.000;2023-04-06T05:03:23;4.00;;;2.30;;
75772;SDS011;64381;0.000;0.000;2023-04-06T05:05:50;3.67;;;2.17;;
75772;SDS011;64381;0.000;0.000;2023-04-06T05:08:15;3.70;;;2.17;;
75772;SDS011;64381;0.000;0.000;2023-04-06T05:10:41;4.50;;;2.60;;
75772;SDS011;64381;0.000;0.000;2023-04-06T05:13:06;3.60;;;2.07;;
75772;SDS011;64381;0.000;0.000;2023-04-06T05:15:31;3.53;;;2.15;;
75772;SDS011;64381;0.000;0.000;2023-04-06T05:17:57;3.97;;;2.10;;
75772;SDS011;64381;0.000;0.000;2023-04-06T05:20:22;4.03;;;2.20;;
75772;SDS011;64381;0.000;0.000;2023-04-06T05:22:47;3.73;;;2.20;;
75772;SDS011;64381;0.000;0.000;2023-04-06T05:25:13;3.70;;;2.30;;
75772;SDS011;64381;0.000;0.000;2023-04-06T05:27:38;3.70;;;2.13;;
75772;SDS011;64381;0.000;0.000;2023-04-06T05:30:04;4.03;;;2.40;;
75772;SDS011;64381;0.000;0.000;2023-04-06T05:32:30;3.65;;;2.17;;
75772;SDS011;64381;0.000;0.000;2023-04-06T05:34:56;3.70;;;2.10;;
75772;SDS011;64381;0.000;0.000;2023-04-06T05:37:21;4.20;;;2.40;;
75772;SDS011;64381;0.000;0.000;2023-04-06T05:39:46;3.60;;;2.00;;
75772;SDS011;64381;0.000;0.000;2023-04-06T05:42:11;3.40;;;2.20;;
75772;SDS011;64381;0.000;0.000;2023-04-06T05:44:37;3.77;;;2.13;;
75772;SDS011;64381;0.000;0.000;2023-04-06T05:47:02;3.97;;;2.40;;
75772;SDS011;64381;0.000;0.000;2023-04-06T05:49:28;3.57;;;2.10;;
75772;SDS011;64381;0.000;0.000;2023-04-06T05:51:53;4.17;;;2.10;;
75772;SDS011;64381;0.000;0.000;2023-04-06T05:54:18;4.00;;;2.30;;
75772;SDS011;64381;0.000;0.000;2023-04-06T05:56:44;3.70;;;2.20;;
75772;SDS011;64381;0.000;0.000;2023-04-06T05:59:09;3.90;;;2.20;;
75772;SDS011;64381;0.000;0.000;2023-04-06T06:01:35;3.70;;;2.30;;
75772;SDS011;64381;0.000;0.000;2023-04-06T06:04:00;3.58;;;2.22;;
75772;SDS011;64381;0.000;0.000;2023-04-06T06:06:27;4.10;;;2.20;;
75772;SDS011;64381;0.000;0.000;2023-04-06T06:08:53;4.30;;;2.10;;
75772;SDS011;64381;0.000;0.000;2023-04-06T06:11:18;3.87;;;2.23;;
75772;SDS011;64381;0.000;0.000;2023-04-06T06:13:43;4.53;;;2.27;;
75772;SDS011;64381;0.000;0.000;2023-04-06T06:16:09;3.67;;;2.20;;
75772;SDS011;64381;0.000;0.000;2023-04-06T06:18:34;4.63;;;2.27;;
75772;SDS011;64381;0.000;0.000;2023-04-06T06:20:59;3.80;;;2.13;;
75772;SDS011;64381;0.000;0.000;2023-04-06T06:23:25;3.70;;;2.20;;
75772;SDS011;64381;0.000;0.000;2023-04-06T06:25:50;4.57;;;2.33;;
75772;SDS011;64381;0.000;0.000;2023-04-06T06:28:15;3.83;;;2.30;;
75772;SDS011;64381;0.000;0.000;2023-04-06T06:30:40;4.60;;;2.03;;
75772;SDS011;64381;0.000;0.000;2023-04-06T06:33:05;3.80;;;2.13;;
75772;SDS011;64381;0.000;0.000;2023-04-06T06:35:31;3.83;;;2.13;;
75772;SDS011;64381;0.000;0.000;2023-04-06T06:37:57;3.67;;;2.03;;
75772;SDS011;64381;0.000;0.000;2023-04-06T06:40:25;3.60;;;2.20;;
75772;SDS011;64381;0.000;0.000;2023-04-06T06:43:00;3.60;;;2.10;;
75772;SDS011;64381;0.000;0.000;2023-04-06T06:45:25;4.13;;;2.30;;
75772;SDS011;64381;0.000;0.000;2023-04-06T06:48:03;4.00;;;2.50;;
75772;SDS011;64381;0.000;0.000;2023-04-06T06:50:37;3.72;;;2.20;;
75772;SDS011;64381;0.000;0.000;2023-04-06T06:53:15;3.90;;;2.20;;
75772;SDS011;64381;0.000;0.000;2023-04-06T06:55:52;3.65;;;2.10;;
75772;SDS011;64381;0.000;0.000;2023-04-06T06:58:18;3.58;;;2.28;;
75772;SDS011;64381;0.000;0.000;2023-04-06T07:00:44;3.60;;;1.93;;
75772;SDS011;64381;0.000;0.000;2023-04-06T07:03:30;3.40;;;2.00;;
75772;SDS011;64381;0.000;0.000;2023-04-06T07:05:58;4.03;;;2.30;;
75772;SDS011;64381;0.000;0.000;2023-04-06T07:08:24;3.53;;;2.00;;
75772;SDS011;64381;0.000;0.000;2023-04-06T07:10:50;3.75;;;2.33;;
75772;SDS011;64381;0.000;0.000;2023-04-06T07:13:19;4.53;;;2.30;;
75772;SDS011;64381;0.000;0.000;2023-04-06T07:15:45;3.63;;;2.10;;
75772;SDS011;64381;0.000;0.000;2023-04-06T07:18:13;3.63;;;2.08;;
75772;SDS011;64381;0.000;0.000;2023-04-06T07:20:39;3.83;;;2.00;;
75772;SDS011;64381;0.000;0.000;2023-04-06T07:23:04;3.83;;;2.10;;
75772;SDS011;64381;0.000;0.000;2023-04-06T07:25:35;3.73;;;2.00;;
75772;SDS011;64381;0.000;0.000;2023-04-06T07:28:00;4.25;;;1.95;;
75772;SDS011;64381;0.000;0.000;2023-04-06T07:30:29;3.97;;;2.20;;
75772;SDS011;64381;0.000;0.000;2023-04-06T07:32:55;3.38;;;1.85;;
75772;SDS011;64381;0.000;0.000;2023-04-06T07:35:21;3.53;;;2.00;;
75772;SDS011;64381;0.000;0.000;2023-04-06T07:37:47;3.58;;;2.08;;
75772;SDS011;64381;0.000;0.000;2023-04-06T07:40:12;4.40;;;2.30;;
75772;SDS011;64381;0.000;0.000;2023-04-06T07:42:37;3.70;;;2.43;;
75772;SDS011;64381;0.000;0.000;2023-04-06T07:45:02;3.80;;;2.27;;
75772;SDS011;64381;0.000;0.000;2023-04-06T07:47:28;4.65;;;2.13;;
75772;SDS011;64381;0.000;0.000;2023-04-06T07:49:54;3.30;;;1.73;;
75772;SDS011;64381;0.000;0.000;2023-04-06T07:52:22;3.70;;;2.05;;
75772;SDS011;64381;0.000;0.000;2023-04-06T07:54:53;3.83;;;2.15;;
75772;SDS011;64381;0.000;0.000;2023-04-06T07:57:19;3.88;;;2.00;;
75772;SDS011;64381;0.000;0.000;2023-04-06T07:59:44;3.57;;;2.00;;
75772;SDS011;64381;0.000;0.000;2023-04-06T08:02:10;4.00;;;2.23;;
75772;SDS011;64381;0.000;0.000;2023-04-06T08:04:38;4.03;;;2.03;;
75772;SDS011;64381;0.000;0.000;2023-04-06T08:07:06;3.80;;;2.00;;
75772;SDS011;64381;0.000;0.000;2023-04-06T08:09:31;3.67;;;1.83;;
75772;SDS011;64381;0.000;0.000;2023-04-06T08:11:57;3.57;;;2.20;;
75772;SDS011;64381;0.000;0.000;2023-04-06T08:14:22;4.00;;;2.10;;
75772;SDS011;64381;0.000;0.000;2023-04-06T08:16:50;3.67;;;2.05;;
75772;SDS011;64381;0.000;0.000;2023-04-06T08:19:15;3.50;;;2.00;;
75772;SDS011;64381;0.000;0.000;2023-04-06T08:21:41;3.50;;;1.90;;
75772;SDS011;64381;0.000;0.000;2023-04-06T08:24:06;3.27;;;1.90;;
75772;SDS011;64381;0.000;0.000;2023-04-06T08:26:35;3.40;;;1.90;;
75772;SDS011;64381;0.000;0.000;2023-04-06T08:29:03;3.70;;;2.00;;
75772;SDS011;64381;0.000;0.000;2023-04-06T08:31:29;3.55;;;2.10;;
75772;SDS011;64381;0.000;0.000;2023-04-06T08:34:06;3.40;;;2.00;;
75772;SDS011;64381;0.000;0.000;2023-04-06T08:36:32;3.40;;;1.90;;
75772;SDS011;64381;0.000;0.000;2023-04-06T08:38:57;3.83;;;2.20;;
75772;SDS011;64381;0.000;0.000;2023-04-06T08:41:23;3.57;;;2.27;;
75772;SDS011;64381;0.000;0.000;2023-04-06T08:43:57;4.53;;;2.13;;
75772;SDS011;64381;0.000;0.000;2023-04-06T08:46:24;3.47;;;2.00;;
75772;SDS011;64381;0.000;0.000;2023-04-06T08:48:50;3.35;;;2.00;;
75772;SDS011;64381;0.000;0.000;2023-04-06T08:51:18;4.30;;;2.10;;
75772;SDS011;64381;0.000;0.000;2023-04-06T08:53:47;4.38;;;2.00;;
75772;SDS011;64381;0.000;0.000;2023-04-06T08:56:14;4.03;;;2.10;;
75772;SDS011;64381;0.000;0.000;2023-04-06T08:58:42;3.72;;;2.00;;
75772;SDS011;64381;0.000;0.000;2023-04-06T09:01:09;4.10;;;2.10;;
75772;SDS011;64381;0.000;0.000;2023-04-06T09:03:37;3.30;;;1.80;;
75772;SDS011;64381;0.000;0.000;2023-04-06T09:06:10;3.45;;;2.10;;
75772;SDS011;64381;0.000;0.000;2023-04-06T09:08:38;3.63;;;2.20;;
75772;SDS011;64381;0.000;0.000;2023-04-06T09:13:45;3.80;;;2.03;;
75772;SDS011;64381;0.000;0.000;2023-04-06T09:16:14;4.55;;;1.98;;
75772;SDS011;64381;0.000;0.000;2023-04-06T09:18:40;3.80;;;2.10;;
75772;SDS011;64381;0.000;0.000;2023-04-06T09:21:09;3.63;;;2.23;;
75772;SDS011;64381;0.000;0.000;2023-04-06T09:23:35;3.47;;;2.03;;
75772;SDS011;64381;0.000;0.000;2023-04-06T09:28:42;3.50;;;2.00;;
75772;SDS011;64381;0.000;0.000;2023-04-06T09:31:11;3.72;;;1.95;;
75772;SDS011;64381;0.000;0.000;2023-04-06T09:33:37;4.05;;;2.00;;
75772;SDS011;64381;0.000;0.000;2023-04-06T09:36:03;3.50;;;1.92;;
75772;SDS011;64381;0.000;0.000;2023-04-06T09:38:32;3.63;;;1.92;;
75772;SDS011;64381;0.000;0.000;2023-04-06T09:41:10;3.80;;;2.10;;
75772;SDS011;64381;0.000;0.000;2023-04-06T09:43:35;3.33;;;1.85;;
75772;SDS011;64381;0.000;0.000;2023-04-06T09:46:00;3.63;;;2.00;;
75772;SDS011;64381;0.000;0.000;2023-04-06T09:48:26;3.90;;;2.13;;
75772;SDS011;64381;0.000;0.000;2023-04-06T09:50:54;3.55;;;1.98;;
75772;SDS011;64381;0.000;0.000;2023-04-06T09:56:12;3.50;;;2.03;;
75772;SDS011;64381;0.000;0.000;2023-04-06T09:58:42;3.72;;;2.00;;
75772;SDS011;64381;0.000;0.000;2023-04-06T10:01:12;3.93;;;2.13;;
75772;SDS011;64381;0.000;0.000;2023-04-06T10:06:51;3.40;;;2.20;;
75772;SDS011;64381;0.000;0.000;2023-04-06T10:09:16;3.67;;;2.10;;
75772;SDS011;64381;0.000;0.000;2023-04-06T10:11:42;3.85;;;1.88;;
75772;SDS011;64381;0.000;0.000;2023-04-06T10:14:08;3.40;;;1.97;;
75772;SDS011;64381;0.000;0.000;2023-04-06T10:16:34;3.60;;;2.13;;
75772;SDS011;64381;0.000;0.000;2023-04-06T10:19:05;3.40;;;1.83;;
75772;SDS011;64381;0.000;0.000;2023-04-06T10:21:38;3.58;;;2.10;;
75772;SDS011;64381;0.000;0.000;2023-04-06T10:24:06;3.57;;;2.00;;
75772;SDS011;64381;0.000;0.000;2023-04-06T10:26:33;3.13;;;1.90;;
75772;SDS011;64381;0.000;0.000;2023-04-06T10:29:02;3.67;;;1.70;;
75772;SDS011;64381;0.000;0.000;2023-04-06T10:31:28;3.60;;;1.88;;
75772;SDS011;64381;0.000;0.000;2023-04-06T10:33:57;3.40;;;1.90;;
75772;SDS011;64381;0.000;0.000;2023-04-06T10:36:25;3.20;;;1.90;;
75772;SDS011;64381;0.000;0.000;2023-04-06T10:38:59;3.50;;;1.88;;
75772;SDS011;64381;0.000;0.000;2023-04-06T10:41:33;3.10;;;1.73;;
75772;SDS011;64381;0.000;0.000;2023-04-06T10:44:17;3.40;;;1.70;;
75772;SDS011;64381;0.000;0.000;2023-04-06T10:46:52;3.70;;;2.10;;
75772;SDS011;64381;0.000;0.000;2023-04-06T10:49:18;3.30;;;1.90;;
75772;SDS011;64381;0.000;0.000;2023-04-06T10:51:43;3.77;;;1.90;;
75772;SDS011;64381;0.000;0.000;2023-04-06T10:54:08;3.23;;;1.77;;
75772;SDS011;64381;0.000;0.000;2023-04-06T10:56:36;3.45;;;1.80;;
75772;SDS011;64381;0.000;0.000;2023-04-06T10:59:02;3.45;;;1.80;;
75772;SDS011;64381;0.000;0.000;2023-04-06T11:01:27;3.93;;;2.07;;
75772;SDS011;64381;0.000;0.000;2023-04-06T11:03:56;3.40;;;2.00;;
75772;SDS011;64381;0.000;0.000;2023-04-06T11:06:22;3.83;;;1.80;;
75772;SDS011;64381;0.000;0.000;2023-04-06T11:08:49;3.67;;;2.00;;
75772;SDS011;64381;0.000;0.000;2023-04-06T11:11:16;3.47;;;2.05;;
75772;SDS011;64381;0.000;0.000;2023-04-06T11:13:51;3.35;;;1.80;;
75772;SDS011;64381;0.000;0.000;2023-04-06T11:18:55;3.33;;;1.70;;
75772;SDS011;64381;0.000;0.000;2023-04-06T11:21:33;3.30;;;1.60;;
75772;SDS011;64381;0.000;0.000;2023-04-06T11:24:06;3.30;;;2.00;;
75772;SDS011;64381;0.000;0.000;2023-04-06T11:26:36;3.55;;;2.00;;
75772;SDS011;64381;0.000;0.000;2023-04-06T11:29:02;3.88;;;1.95;;
75772;SDS011;64381;0.000;0.000;2023-04-06T11:31:28;3.43;;;1.93;;
75772;SDS011;64381;0.000;0.000;2023-04-06T11:33:56;3.10;;;1.70;;
75772;SDS011;64381;0.000;0.000;2023-04-06T11:36:22;3.58;;;1.80;;
75772;SDS011;64381;0.000;0.000;2023-04-06T11:38:47;3.27;;;1.80;;
75772;SDS011;64381;0.000;0.000;2023-04-06T11:41:12;3.13;;;1.80;;
75772;SDS011;64381;0.000;0.000;2023-04-06T11:43:37;3.93;;;1.90;;
75772;SDS011;64381;0.000;0.000;2023-04-06T11:46:03;3.50;;;2.10;;
75772;SDS011;64381;0.000;0.000;2023-04-06T11:48:29;3.20;;;1.90;;
75772;SDS011;64381;0.000;0.000;2023-04-06T11:50:55;3.63;;;2.00;;
75772;SDS011;64381;0.000;0.000;2023-04-06T11:53:22;3.20;;;1.85;;
75772;SDS011;64381;0.000;0.000;2023-04-06T11:55:47;3.13;;;1.60;;
75772;SDS011;64381;0.000;0.000;2023-04-06T11:58:12;3.20;;;1.90;;
75772;SDS011;64381;0.000;0.000;2023-04-06T12:00:37;3.40;;;1.73;;
75772;SDS011;64381;0.000;0.000;2023-04-06T12:03:03;3.63;;;1.90;;
75772;SDS011;64381;0.000;0.000;2023-04-06T12:05:28;3.47;;;1.90;;
75772;SDS011;64381;0.000;0.000;2023-04-06T12:07:53;3.33;;;1.90;;
75772;SDS011;64381;0.000;0.000;2023-04-06T12:10:18;3.10;;;1.70;;
75772;SDS011;64381;0.000;0.000;2023-04-06T12:12:44;3.67;;;1.80;;
75772;SDS011;64381;0.000;0.000;2023-04-06T12:15:09;3.47;;;1.80;;
75772;SDS011;64381;0.000;0.000;2023-04-06T12:17:34;3.50;;;1.90;;
75772;SDS011;64381;0.000;0.000;2023-04-06T12:19:59;3.63;;;1.83;;
75772;SDS011;64381;0.000;0.000;2023-04-06T12:22:25;3.27;;;1.83;;
75772;SDS011;64381;0.000;0.000;2023-04-06T12:24:50;3.20;;;1.80;;
75772;SDS011;64381;0.000;0.000;2023-04-06T12:27:15;3.50;;;1.97;;
75772;SDS011;64381;0.000;0.000;2023-04-06T12:29:42;3.23;;;1.80;;
75772;SDS011;64381;0.000;0.000;2023-04-06T12:32:08;4.65;;;1.90;;
75772;SDS011;64381;0.000;0.000;2023-04-06T12:34:33;3.20;;;2.00;;
75772;SDS011;64381;0.000;0.000;2023-04-06T12:36:59;3.28;;;1.90;;
75772;SDS011;64381;0.000;0.000;2023-04-06T12:39:25;3.20;;;1.90;;
75772;SDS011;64381;0.000;0.000;2023-04-06T12:41:52;3.97;;;1.65;;
75772;SDS011;64381;0.000;0.000;2023-04-06T12:44:17;3.22;;;1.90;;
75772;SDS011;64381;0.000;0.000;2023-04-06T12:46:42;3.10;;;1.77;;
75772;SDS011;64381;0.000;0.000;2023-04-06T12:49:08;3.40;;;1.70;;
75772;SDS011;64381;0.000;0.000;2023-04-06T12:51:33;3.33;;;1.73;;
75772;SDS011;64381;0.000;0.000;2023-04-06T12:53:59;3.30;;;1.60;;
75772;SDS011;64381;0.000;0.000;2023-04-06T12:56:24;3.63;;;1.70;;
75772;SDS011;64381;0.000;0.000;2023-04-06T12:58:50;3.03;;;1.75;;
75772;SDS011;64381;0.000;0.000;2023-04-06T13:01:16;3.20;;;1.70;;
75772;SDS011;64381;0.000;0.000;2023-04-06T13:03:41;3.20;;;1.60;;
75772;SDS011;64381;0.000;0.000;2023-04-06T13:06:07;3.53;;;2.03;;
75772;SDS011;64381;0.000;0.000;2023-04-06T13:08:33;3.22;;;1.60;;
75772;SDS011;64381;0.000;0.000;2023-04-06T13:10:58;3.23;;;1.80;;
75772;SDS011;64381;0.000;0.000;2023-04-06T13:13:25;3.13;;;1.70;;
75772;SDS011;64381;0.000;0.000;2023-04-06T13:15:51;3.30;;;2.00;;
75772;SDS011;64381;0.000;0.000;2023-04-06T13:18:17;3.15;;;1.70;;
75772;SDS011;64381;0.000;0.000;2023-04-06T13:20:42;3.23;;;1.70;;
75772;SDS011;64381;0.000;0.000;2023-04-06T13:23:08;2.80;;;1.40;;
75772;SDS011;64381;0.000;0.000;2023-04-06T13:25:33;3.50;;;1.90;;
75772;SDS011;64381;0.000;0.000;2023-04-06T13:27:58;3.27;;;1.93;;
75772;SDS011;64381;0.000;0.000;2023-04-06T13:30:24;3.10;;;1.80;;
75772;SDS011;64381;0.000;0.000;2023-04-06T13:32:49;3.22;;;1.83;;
75772;SDS011;64381;0.000;0.000;2023-04-06T13:35:15;3.00;;;1.60;;
75772;SDS011;64381;0.000;0.000;2023-04-06T13:37:41;3.10;;;1.83;;
75772;SDS011;64381;0.000;0.000;2023-04-06T13:40:06;3.10;;;1.70;;
75772;SDS011;64381;0.000;0.000;2023-04-06T13:42:32;3.67;;;1.77;;
75772;SDS011;64381;0.000;0.000;2023-04-06T13:44:58;3.57;;;1.90;;
75772;SDS011;64381;0.000;0.000;2023-04-06T13:47:24;3.00;;;1.53;;
75772;SDS011;64381;0.000;0.000;2023-04-06T13:49:49;3.15;;;1.70;;
75772;SDS011;64381;0.000;0.000;2023-04-06T13:52:15;3.10;;;1.60;;
75772;SDS011;64381;0.000;0.000;2023-04-06T13:54:40;3.23;;;1.70;;
75772;SDS011;64381;0.000;0.000;2023-04-06T13:57:06;3.40;;;1.75;;
75772;SDS011;64381;0.000;0.000;2023-04-06T13:59:31;3.27;;;1.70;;
75772;SDS011;64381;0.000;0.000;2023-04-06T14:01:58;3.10;;;1.70;;
75772;SDS011;64381;0.000;0.000;2023-04-06T14:04:23;3.28;;;1.70;;
75772;SDS011;64381;0.000;0.000;2023-04-06T14:06:48;3.70;;;2.00;;
75772;SDS011;64381;0.000;0.000;2023-04-06T14:09:13;3.27;;;1.73;;
75772;SDS011;64381;0.000;0.000;2023-04-06T14:11:39;3.47;;;1.80;;
75772;SDS011;64381;0.000;0.000;2023-04-06T14:14:04;3.30;;;1.70;;
75772;SDS011;64381;0.000;0.000;2023-04-06T14:16:29;3.30;;;1.60;;
75772;SDS011;64381;0.000;0.000;2023-04-06T14:18:54;2.90;;;1.60;;
75772;SDS011;64381;0.000;0.000;2023-04-06T14:21:20;3.63;;;1.80;;
75772;SDS011;64381;0.000;0.000;2023-04-06T14:23:45;3.83;;;1.70;;
75772;SDS011;64381;0.000;0.000;2023-04-06T14:26:10;3.17;;;1.60;;
75772;SDS011;64381;0.000;0.000;2023-04-06T14:28:35;3.10;;;1.63;;
75772;SDS011;64381;0.000;0.000;2023-04-06T14:31:02;2.92;;;1.58;;
75772;SDS011;64381;0.000;0.000;2023-04-06T14:33:35;3.53;;;1.50;;
75772;SDS011;64381;0.000;0.000;2023-04-06T14:36:03;3.77;;;1.80;;
75772;SDS011;64381;0.000;0.000;2023-04-06T14:38:30;3.33;;;1.58;;
75772;SDS011;64381;0.000;0.000;2023-04-06T14:40:56;3.10;;;1.60;;
75772;SDS011;64381;0.000;0.000;2023-04-06T14:43:21;3.10;;;1.70;;
75772;SDS011;64381;0.000;0.000;2023-04-06T14:45:46;3.43;;;1.77;;
75772;SDS011;64381;0.000;0.000;2023-04-06T14:48:12;3.13;;;1.60;;
75772;SDS011;64381;0.000;0.000;2023-04-06T14:50:38;2.90;;;1.50;;
75772;SDS011;64381;0.000;0.000;2023-04-06T14:53:04;3.33;;;1.70;;
75772;SDS011;64381;0.000;0.000;2023-04-06T14:55:29;3.00;;;1.60;;
75772;SDS011;64381;0.000;0.000;2023-04-06T14:57:54;3.50;;;1.80;;
75772;SDS011;64381;0.000;0.000;2023-04-06T15:00:20;2.90;;;1.70;;
75772;SDS011;64381;0.000;0.000;2023-04-06T15:02:45;3.30;;;1.60;;
75772;SDS011;64381;0.000;0.000;2023-04-06T15:05:10;3.23;;;1.60;;
75772;SDS011;64381;0.000;0.000;2023-04-06T15:07:36;3.10;;;1.53;;